createdAt,value
2018-10-18T00:01:06.253Z,98631.91
2018-10-18T00:03:34.967Z,98630.98
2018-10-18T00:06:03.441Z,98633.34
2018-10-18T00:08:31.894Z,98625.45
2018-10-18T00:11:00.348Z,98628.87
2018-10-18T00:13:28.675Z,98627.81
2018-10-18T00:15:57.918Z,98628.41
2018-10-18T00:18:26.976Z,98633.80
2018-10-18T00:20:56.419Z,98626.75
2018-10-18T00:23:26.001Z,98632.52
2018-10-18T00:25:54.387Z,98628.84
2018-10-18T00:28:22.803Z,98630.46
2018-10-18T00:30:51.290Z,98629.59
2018-10-18T00:33:20.057Z,98631.25
2018-10-18T00:35:48.945Z,98635.36
2018-10-18T00:38:20.235Z,98630.28
2018-10-18T00:40:49.206Z,98630.74
2018-10-18T00:43:19.006Z,98629.31
2018-10-18T00:45:47.702Z,98625.80
2018-10-18T00:48:16.842Z,98621.44
2018-10-18T00:50:45.917Z,98624.98
2018-10-18T00:53:14.990Z,98625.68
2018-10-18T00:55:43.471Z,98623.46
2018-10-18T00:58:12.209Z,98622.44
2018-10-18T01:00:41.103Z,98622.41
2018-10-18T01:03:10.620Z,98618.06
2018-10-18T01:05:39.045Z,98619.95
2018-10-18T01:08:08.093Z,98612.81
2018-10-18T01:10:38.202Z,98618.91
2018-10-18T01:13:07.601Z,98618.06
2018-10-18T01:15:36.128Z,98615.95
2018-10-18T01:18:05.100Z,98612.30
2018-10-18T01:20:33.570Z,98612.67
2018-10-18T01:23:02.083Z,98617.94
2018-10-18T01:25:31.193Z,98612.20
2018-10-18T01:27:59.785Z,98614.28
2018-10-18T01:30:28.654Z,98619.06
2018-10-18T01:32:57.156Z,98617.34
2018-10-18T01:35:25.552Z,98615.44
2018-10-18T01:37:53.935Z,98617.05
2018-10-18T01:40:24.196Z,98613.77
2018-10-18T01:42:53.336Z,98606.94
2018-10-18T01:45:22.141Z,98614.09
2018-10-18T01:47:50.864Z,98618.47
2018-10-18T01:50:20.848Z,98611.42
2018-10-18T01:52:50.228Z,98608.61
2018-10-18T01:55:19.454Z,98609.53
2018-10-18T01:57:48.408Z,98614.44
2018-10-18T02:00:17.433Z,98610.78
2018-10-18T02:02:46.491Z,98610.40
2018-10-18T02:05:15.173Z,98609.23
2018-10-18T02:07:43.559Z,98608.52
2018-10-18T02:10:12.037Z,98614.38
2018-10-18T02:12:40.543Z,98616.19
2018-10-18T02:15:10.157Z,98618.40
2018-10-18T02:17:39.243Z,98620.59
2018-10-18T02:20:08.754Z,98621.86
2018-10-18T02:22:37.536Z,98623.61
2018-10-18T02:25:07.626Z,98622.78
2018-10-18T02:27:35.952Z,98616.33
2018-10-18T02:30:05.372Z,98614.16
2018-10-18T02:32:33.705Z,98621.44
2018-10-18T02:35:02.688Z,98611.50
2018-10-18T02:37:31.119Z,98622.17
2018-10-18T02:39:59.817Z,98624.22
2018-10-18T02:42:29.188Z,98622.08
2018-10-18T02:44:57.588Z,98608.67
2018-10-18T02:47:26.051Z,98615.58
2018-10-18T02:49:54.741Z,98609.34
2018-10-18T02:52:23.300Z,98611.16
2018-10-18T02:54:52.355Z,98609.73
2018-10-18T02:57:20.807Z,98611.77
2018-10-18T02:59:49.487Z,98611.54
2018-10-18T03:02:19.784Z,98615.94
2018-10-18T03:04:48.872Z,98613.77
2018-10-18T03:07:17.253Z,98615.68
2018-10-18T03:09:45.725Z,98614.61
2018-10-18T03:12:14.223Z,98617.12
2018-10-18T03:14:43.135Z,98621.69
2018-10-18T03:17:11.704Z,98622.43
2018-10-18T03:19:40.257Z,98622.06
2018-10-18T03:22:08.969Z,98617.70
2018-10-18T03:24:37.393Z,98618.38
2018-10-18T03:27:06.176Z,98622.13
2018-10-18T03:29:35.112Z,98621.42
2018-10-18T03:32:03.614Z,98621.88
2018-10-18T03:34:32.010Z,98621.23
2018-10-18T03:37:00.544Z,98622.37
2018-10-18T03:39:29.188Z,98622.49
2018-10-18T03:41:58.622Z,98625.56
2018-10-18T03:44:27.029Z,98628.35
2018-10-18T03:46:55.460Z,98627.03
2018-10-18T03:49:24.223Z,98633.84
2018-10-18T03:51:52.639Z,98628.35
2018-10-18T03:54:21.091Z,98631.73
2018-10-18T03:56:49.457Z,98628.78
2018-10-18T03:59:17.934Z,98631.14
2018-10-18T04:01:46.303Z,98629.36
2018-10-18T04:04:15.518Z,98634.36
2018-10-18T04:06:44.507Z,98637.77
2018-10-18T04:09:13.199Z,98635.19
2018-10-18T04:11:43.378Z,98638.90
2018-10-18T04:14:11.753Z,98641.56
2018-10-18T04:16:40.307Z,98642.81
2018-10-18T04:19:09.109Z,98637.13
2018-10-18T04:21:37.902Z,98643.23
2018-10-18T04:24:06.368Z,98635.55
2018-10-18T04:26:35.505Z,98642.23
2018-10-18T04:29:04.932Z,98642.78
2018-10-18T04:31:33.438Z,98639.70
2018-10-18T04:34:02.007Z,98639.00
2018-10-18T04:36:30.802Z,98646.64
2018-10-18T04:39:00.035Z,98641.77
2018-10-18T04:41:29.370Z,98643.78
2018-10-18T04:43:58.815Z,98644.45
2018-10-18T04:46:27.493Z,98645.49
2018-10-18T04:48:56.198Z,98646.63
2018-10-18T04:51:24.586Z,98648.47
2018-10-18T04:53:53.180Z,98651.87
2018-10-18T04:56:21.750Z,98653.16
2018-10-18T04:58:50.865Z,98657.24
2018-10-18T05:01:19.383Z,98656.16
2018-10-18T05:03:48.388Z,98651.56
2018-10-18T05:06:17.329Z,98654.13
2018-10-18T05:08:45.970Z,98658.00
2018-10-18T05:11:14.688Z,98663.89
2018-10-18T05:13:45.316Z,98667.42
2018-10-18T05:16:14.077Z,98661.45
2018-10-18T05:18:42.833Z,98661.66
2018-10-18T05:21:11.384Z,98663.27
2018-10-18T05:23:39.955Z,98663.35
2018-10-18T05:26:09.232Z,98666.05
2018-10-18T05:28:37.674Z,98664.02
2018-10-18T05:31:06.546Z,98667.75
2018-10-18T05:33:36.202Z,98665.02
2018-10-18T05:36:04.836Z,98666.80
2018-10-18T05:38:33.710Z,98673.45
2018-10-18T05:41:02.327Z,98671.49
2018-10-18T05:43:30.881Z,98668.38
2018-10-18T05:45:59.507Z,98675.02
2018-10-18T05:48:27.985Z,98676.69
2018-10-18T05:50:57.146Z,98682.78
2018-10-18T05:53:25.687Z,98689.27
2018-10-18T05:55:56.229Z,98691.13
2018-10-18T05:58:25.589Z,98693.59
2018-10-18T06:00:54.370Z,98699.90
2018-10-18T06:03:23.961Z,98698.41
2018-10-18T06:05:53.980Z,98700.61
2018-10-18T06:08:23.619Z,98701.23
2018-10-18T06:11:09.351Z,98701.69
2018-10-18T06:13:38.096Z,98702.73
2018-10-18T06:16:07.456Z,98707.97
2018-10-18T06:18:36.342Z,98714.41
2018-10-18T06:21:06.000Z,98716.81
2018-10-18T06:23:35.627Z,98711.74
2018-10-18T06:26:05.206Z,98712.98
2018-10-18T06:28:34.550Z,98718.90
2018-10-18T06:31:03.771Z,98719.34
2018-10-18T06:33:32.570Z,98720.33
2018-10-18T06:36:01.358Z,98726.22
2018-10-18T06:38:31.317Z,98725.55
2018-10-18T06:41:02.021Z,98724.17
2018-10-18T06:43:36.371Z,98729.36
2018-10-18T06:46:09.056Z,98733.29
2018-10-18T06:48:38.760Z,98729.81
2018-10-18T06:51:08.226Z,98731.11
2018-10-18T06:53:37.412Z,98739.37
2018-10-18T06:56:07.270Z,98734.30
2018-10-18T06:58:36.576Z,98729.73
2018-10-18T07:01:07.282Z,98729.20
2018-10-18T07:03:37.236Z,98734.26
2018-10-18T07:06:06.076Z,98736.70
2018-10-18T07:08:35.895Z,98730.20
2018-10-18T07:11:05.818Z,98730.33
2018-10-18T07:13:34.832Z,98731.28
2018-10-18T07:16:04.821Z,98733.25
2018-10-18T07:18:34.934Z,98732.97
2018-10-18T07:21:05.162Z,98737.47
2018-10-18T07:23:34.748Z,98736.55
2018-10-18T07:26:03.943Z,98745.77
2018-10-18T07:28:33.823Z,98750.86
2018-10-18T07:31:03.256Z,98751.79
2018-10-18T07:33:33.144Z,98754.44
2018-10-18T07:36:02.090Z,98757.02
2018-10-18T07:38:33.255Z,98763.48
2018-10-18T07:41:03.082Z,98765.13
2018-10-18T07:43:33.794Z,98767.95
2018-10-18T07:46:03.653Z,98774.95
2018-10-18T07:48:33.244Z,98773.53
2018-10-18T07:51:02.633Z,98772.30
2018-10-18T07:53:32.520Z,98779.63
2018-10-18T07:56:01.600Z,98781.86
2018-10-18T07:58:31.119Z,98777.01
2018-10-18T08:01:00.103Z,98780.78
2018-10-18T08:03:29.092Z,98785.47
2018-10-18T08:05:58.319Z,98786.78
2018-10-18T08:08:27.648Z,98787.64
2018-10-18T08:10:57.664Z,98785.74
2018-10-18T08:13:27.033Z,98781.62
2018-10-18T08:15:55.652Z,98783.14
2018-10-18T08:18:25.142Z,98788.55
2018-10-18T08:20:55.165Z,98776.89
2018-10-18T08:23:23.672Z,98780.89
2018-10-18T08:25:53.168Z,98777.02
2018-10-18T08:28:22.683Z,98777.75
2018-10-18T08:30:53.498Z,98773.47
2018-10-18T08:33:23.712Z,98770.28
2018-10-18T08:35:54.511Z,98775.31
2018-10-18T08:38:23.803Z,98774.65
2018-10-18T08:40:52.991Z,98774.98
2018-10-18T08:43:23.742Z,98772.66
2018-10-18T08:45:53.494Z,98775.83
2018-10-18T08:48:22.102Z,98766.52
2018-10-18T08:50:50.727Z,98772.38
2018-10-18T08:53:20.611Z,98772.79
2018-10-18T08:55:51.393Z,98774.78
2018-10-18T08:58:21.548Z,98774.93
2018-10-18T09:00:50.859Z,98776.91
2018-10-18T09:03:19.820Z,98778.31
2018-10-18T09:05:48.331Z,98772.03
2018-10-18T09:08:18.396Z,98777.39
2018-10-18T09:10:47.322Z,98781.21
2018-10-18T09:13:16.558Z,98778.84
2018-10-18T09:15:47.223Z,98778.80
2018-10-18T09:18:16.444Z,98785.11
2018-10-18T09:20:45.185Z,98778.64
2018-10-18T09:23:15.371Z,98773.48
2018-10-18T09:25:43.844Z,98769.26
2018-10-18T09:28:13.115Z,98765.78
2018-10-18T09:30:41.984Z,98766.28
2018-10-18T09:33:10.721Z,98769.11
2018-10-18T09:35:39.216Z,98761.77
2018-10-18T09:38:07.865Z,98756.88
2018-10-18T09:40:37.487Z,98759.27
2018-10-18T09:43:06.940Z,98754.20
2018-10-18T09:45:36.141Z,98755.42
2018-10-18T09:48:05.988Z,98756.53
2018-10-18T09:50:35.680Z,98757.06
2018-10-18T09:53:04.813Z,98762.98
2018-10-18T09:55:34.440Z,98757.25
2018-10-18T09:58:02.988Z,98757.28
2018-10-18T10:00:37.341Z,98758.39
2018-10-18T10:03:11.566Z,98758.98
2018-10-18T10:05:40.194Z,98757.17
2018-10-18T10:08:09.716Z,98757.03
2018-10-18T10:10:38.635Z,98754.43
2018-10-18T10:13:08.721Z,98754.23
2018-10-18T10:15:38.209Z,98753.15
2018-10-18T10:18:07.064Z,98751.41
2018-10-18T10:20:36.273Z,98746.72
2018-10-18T10:23:05.910Z,98742.80
2018-10-18T10:25:36.391Z,98747.98
2018-10-18T10:28:05.342Z,98746.92
2018-10-18T10:30:35.210Z,98739.73
2018-10-18T10:33:04.152Z,98740.85
2018-10-18T10:35:32.660Z,98733.27
2018-10-18T10:38:01.185Z,98732.30
2018-10-18T10:40:29.841Z,98742.13
2018-10-18T10:42:58.801Z,98738.32
2018-10-18T10:45:27.334Z,98734.22
2018-10-18T10:47:56.551Z,98741.12
2018-10-18T10:50:27.707Z,98732.55
2018-10-18T10:55:36.590Z,98735.39
2018-10-18T10:58:06.077Z,98731.79
2018-10-18T11:01:22.987Z,98728.03
2018-10-18T11:03:54.024Z,98724.59
2018-10-18T11:06:23.270Z,98717.05
2018-10-18T11:08:52.499Z,98716.69
2018-10-18T11:11:21.876Z,98707.65
2018-10-18T11:13:51.793Z,98706.98
2018-10-18T11:16:20.927Z,98702.58
2018-10-18T11:18:49.881Z,98701.08
2018-10-18T11:21:18.675Z,98697.97
2018-10-18T11:23:47.243Z,98696.01
2018-10-18T11:26:15.956Z,98693.56
2018-10-18T11:28:44.629Z,98692.75
2018-10-18T11:31:13.811Z,98694.31
2018-10-18T11:33:43.288Z,98691.20
2018-10-18T11:36:12.245Z,98687.14
2018-10-18T11:38:41.968Z,98684.95
2018-10-18T11:41:11.122Z,98687.08
2018-10-18T11:43:40.936Z,98685.95
2018-10-18T11:46:09.742Z,98682.63
2018-10-18T11:48:39.889Z,98682.31
2018-10-18T11:51:08.680Z,98679.91
2018-10-18T11:53:37.158Z,98677.44
2018-10-18T11:56:05.798Z,98680.50
2018-10-18T11:58:34.352Z,98673.15
2018-10-18T12:01:03.157Z,98675.58
2018-10-18T12:03:32.243Z,98677.84
2018-10-18T12:06:01.387Z,98671.65
2018-10-18T12:08:30.874Z,98662.65
2018-10-18T12:11:00.213Z,98670.47
2018-10-18T12:13:28.963Z,98658.35
2018-10-18T12:15:58.127Z,98660.29
2018-10-18T12:18:27.234Z,98655.91
2018-10-18T12:20:56.421Z,98649.05
2018-10-18T12:23:25.033Z,98648.34
2018-10-18T12:25:54.859Z,98641.98
2018-10-18T12:28:24.171Z,98644.17
2018-10-18T12:30:53.340Z,98643.29
2018-10-18T12:33:22.000Z,98647.67
2018-10-18T12:35:51.902Z,98644.41
2018-10-18T12:38:21.493Z,98646.24
2018-10-18T12:40:51.292Z,98645.67
2018-10-18T12:43:20.664Z,98639.22
2018-10-18T12:45:49.984Z,98646.04
2018-10-18T12:48:19.394Z,98643.58
2018-10-18T12:50:47.704Z,98637.73
2018-10-18T12:53:17.562Z,98642.55
2018-10-18T12:55:47.371Z,98642.73
2018-10-18T12:58:16.913Z,98638.20
2018-10-18T13:00:45.471Z,98629.68
2018-10-18T13:03:16.202Z,98635.55
2018-10-18T13:05:44.983Z,98640.79
2018-10-18T13:08:13.864Z,98636.65
2018-10-18T13:10:43.577Z,98630.36
2018-10-18T13:13:13.744Z,98627.85
2018-10-18T13:15:42.569Z,98630.59
2018-10-18T13:18:11.189Z,98623.55
2018-10-18T13:20:40.759Z,98624.19
2018-10-18T13:23:10.392Z,98622.64
2018-10-18T13:25:39.074Z,98622.08
2018-10-18T13:28:07.573Z,98624.86
2018-10-18T13:30:37.460Z,98617.03
2018-10-18T13:33:06.762Z,98625.11
2018-10-18T13:35:37.074Z,98618.28
2018-10-18T13:38:06.804Z,98620.02
2018-10-18T13:40:37.349Z,98619.14
2018-10-18T13:43:06.374Z,98623.56
2018-10-18T13:45:34.992Z,98626.77
2018-10-18T13:48:04.825Z,98618.31
2018-10-18T13:50:34.865Z,98630.70
2018-10-18T13:53:04.240Z,98624.03
2018-10-18T13:55:33.637Z,98630.89
2018-10-18T13:58:03.249Z,98626.08
2018-10-18T14:00:32.101Z,98627.41
2018-10-18T14:03:03.758Z,98622.05
2018-10-18T14:05:32.493Z,98613.57
2018-10-18T14:08:01.635Z,98616.84
2018-10-18T14:10:30.420Z,98619.03
2018-10-18T14:12:59.994Z,98615.66
2018-10-18T14:15:30.399Z,98617.95
2018-10-18T14:18:01.156Z,98615.88
2018-10-18T14:20:32.023Z,98611.08
2018-10-18T14:23:01.729Z,98614.83
2018-10-18T14:25:31.531Z,98612.67
2018-10-18T14:28:01.921Z,98607.50
2018-10-18T14:30:31.078Z,98609.17
2018-10-18T14:32:59.653Z,98608.94
2018-10-18T14:35:28.261Z,98606.87
2018-10-18T14:37:58.218Z,98610.30
2018-10-18T14:40:28.255Z,98609.67
2018-10-18T14:42:57.281Z,98607.52
2018-10-18T14:45:26.006Z,98610.15
2018-10-18T14:47:55.282Z,98610.72
2018-10-18T14:50:25.145Z,98613.00
2018-10-18T14:52:55.604Z,98608.14
2018-10-18T14:55:25.940Z,98606.80
2018-10-18T14:57:55.709Z,98611.06
2018-10-18T15:00:24.397Z,98606.93
2018-10-18T15:02:52.895Z,98611.39
2018-10-18T15:05:22.412Z,98616.13
2018-10-18T15:07:51.523Z,98615.41
2018-10-18T15:10:21.869Z,98615.59
2018-10-18T15:12:51.113Z,98613.77
2018-10-18T15:15:19.869Z,98613.52
2018-10-18T15:17:49.382Z,98608.45
2018-10-18T15:20:18.323Z,98607.58
2018-10-18T15:22:46.877Z,98611.53
2018-10-18T15:25:16.045Z,98607.95
2018-10-18T15:27:44.821Z,98607.98
2018-10-18T15:30:15.168Z,98610.17
2018-10-18T15:32:43.838Z,98609.57
2018-10-18T15:35:12.975Z,98614.56
2018-10-18T15:37:42.330Z,98605.72
2018-10-18T15:40:10.869Z,98614.49
2018-10-18T15:42:40.564Z,98616.65
2018-10-18T15:45:10.348Z,98611.25
2018-10-18T15:47:39.303Z,98613.78
2018-10-18T15:50:09.553Z,98618.88
2018-10-18T15:52:38.085Z,98618.58
2018-10-18T15:55:07.938Z,98619.53
2018-10-18T15:57:37.205Z,98624.71
2018-10-18T16:00:09.828Z,98626.22
2018-10-18T16:02:38.453Z,98628.39
2018-10-18T16:05:09.947Z,98633.97
2018-10-18T16:07:39.028Z,98633.33
2018-10-18T16:10:09.891Z,98632.19
2018-10-18T16:12:39.572Z,98641.63
2018-10-18T16:15:10.397Z,98638.47
2018-10-18T16:17:39.970Z,98635.03
2018-10-18T16:20:10.221Z,98643.48
2018-10-18T16:22:42.148Z,98643.77
2018-10-18T16:25:11.514Z,98653.84
2018-10-18T16:27:41.667Z,98657.53
2018-10-18T16:30:11.541Z,98660.41
2018-10-18T16:32:41.214Z,98660.66
2018-10-18T16:35:09.767Z,98658.84
2018-10-18T16:37:39.533Z,98663.48
2018-10-18T16:40:09.289Z,98671.42
2018-10-18T16:42:38.817Z,98674.91
2018-10-18T16:45:10.986Z,98680.00
2018-10-18T16:47:41.174Z,98682.18
2018-10-18T16:50:11.269Z,98688.39
2018-10-18T16:52:41.109Z,98692.09
2018-10-18T16:55:11.445Z,98691.70
2018-10-18T16:57:40.501Z,98700.42
2018-10-18T17:00:10.332Z,98703.17
2018-10-18T17:02:41.146Z,98704.11
2018-10-18T17:05:10.769Z,98708.98
2018-10-18T17:07:40.339Z,98710.58
2018-10-18T17:10:09.507Z,98711.23
2018-10-18T17:12:39.096Z,98715.00
2018-10-18T17:15:08.796Z,98722.80
2018-10-18T17:17:38.452Z,98721.02
2018-10-18T17:20:07.507Z,98723.86
2018-10-18T17:22:37.247Z,98728.41
2018-10-18T17:25:07.077Z,98736.39
2018-10-18T17:27:35.866Z,98735.61
2018-10-18T17:30:05.384Z,98742.63
2018-10-18T17:32:35.135Z,98741.53
2018-10-18T17:35:04.688Z,98739.92
2018-10-18T17:37:34.831Z,98742.46
2018-10-18T17:40:04.658Z,98741.83
2018-10-18T17:42:33.121Z,98742.40
2018-10-18T17:45:02.373Z,98745.50
2018-10-18T17:47:31.677Z,98750.55
2018-10-18T17:50:00.226Z,98748.42
2018-10-18T17:52:30.124Z,98756.64
2018-10-18T17:54:59.259Z,98753.45
2018-10-18T17:57:29.275Z,98754.73
2018-10-18T17:59:58.947Z,98761.13
2018-10-18T18:02:29.958Z,98764.00
2018-10-18T18:04:59.200Z,98763.80
2018-10-18T18:07:28.140Z,98762.55
2018-10-18T18:09:57.425Z,98769.47
2018-10-18T18:12:28.510Z,98773.02
2018-10-18T18:14:57.302Z,98776.37
2018-10-18T18:17:26.976Z,98771.72
2018-10-18T18:19:56.538Z,98772.19
2018-10-18T18:22:25.527Z,98780.52
2018-10-18T18:24:55.452Z,98782.20
2018-10-18T18:27:23.923Z,98779.31
2018-10-18T18:29:52.282Z,98779.52
2018-10-18T18:32:20.706Z,98781.71
2018-10-18T18:34:49.181Z,98780.91
2018-10-18T18:37:17.544Z,98783.96
2018-10-18T18:39:45.968Z,98794.79
2018-10-18T18:42:15.033Z,98789.53
2018-10-18T18:44:43.442Z,98791.61
2018-10-18T18:47:11.796Z,98790.22
2018-10-18T18:49:40.569Z,98788.77
2018-10-18T18:52:08.949Z,98797.29
2018-10-18T18:54:38.143Z,98800.23
2018-10-18T18:57:07.153Z,98796.55
2018-10-18T18:59:37.203Z,98800.45
2018-10-18T19:02:06.602Z,98802.33
2018-10-18T19:04:35.143Z,98808.23
2018-10-18T19:07:03.611Z,98796.58
2018-10-18T19:09:32.766Z,98798.80
2018-10-18T19:12:01.840Z,98800.35
2018-10-18T19:14:30.684Z,98808.19
2018-10-18T19:16:59.811Z,98802.80
2018-10-18T19:19:28.748Z,98797.83
2018-10-18T19:21:57.228Z,98802.00
2018-10-18T19:24:26.018Z,98798.68
2018-10-18T19:26:56.023Z,98798.11
2018-10-18T19:29:24.505Z,98800.66
2018-10-18T19:31:53.372Z,98804.70
2018-10-18T19:34:22.054Z,98808.50
2018-10-18T19:36:50.372Z,98813.78
2018-10-18T19:39:18.896Z,98811.56
2018-10-18T19:41:47.261Z,98815.56
2018-10-18T19:44:15.829Z,98824.80
2018-10-18T19:46:44.490Z,98819.81
2018-10-18T19:49:13.059Z,98823.34
2018-10-18T19:51:41.453Z,98826.66
2018-10-18T19:54:10.453Z,98830.08
2018-10-18T19:56:39.446Z,98830.23
2018-10-18T19:59:07.675Z,98829.92
2018-10-18T20:01:36.143Z,98834.30
2018-10-18T20:04:04.747Z,98838.19
2018-10-18T20:06:33.084Z,98836.36
2018-10-18T20:09:01.432Z,98836.36
2018-10-18T20:11:29.804Z,98840.56
2018-10-18T20:13:59.471Z,98842.67
2018-10-18T20:16:27.957Z,98841.63
2018-10-18T20:18:57.095Z,98845.52
2018-10-18T20:21:25.481Z,98845.99
2018-10-18T20:23:53.901Z,98844.70
2018-10-18T20:26:22.457Z,98842.72
2018-10-18T20:28:50.783Z,98845.77
2018-10-18T20:31:19.449Z,98847.33
2018-10-18T20:33:48.594Z,98841.78
2018-10-18T20:36:17.367Z,98849.84
2018-10-18T20:38:46.196Z,98848.30
2018-10-18T20:41:15.364Z,98841.59
2018-10-18T20:43:43.694Z,98846.28
2018-10-18T20:46:13.099Z,98852.30
2018-10-18T20:48:41.488Z,98854.05
2018-10-18T20:51:09.939Z,98858.66
2018-10-18T20:53:38.584Z,98856.20
2018-10-18T20:56:06.960Z,98861.17
2018-10-18T20:58:36.505Z,98862.30
2018-10-18T21:01:06.526Z,98864.23
2018-10-18T21:03:34.969Z,98865.52
2018-10-18T21:06:03.745Z,98868.03
2018-10-18T21:08:32.560Z,98865.45
2018-10-18T21:11:01.082Z,98868.36
2018-10-18T21:13:29.585Z,98860.34
2018-10-18T21:15:58.135Z,98870.40
2018-10-18T21:18:26.567Z,98873.23
2018-10-18T21:20:54.991Z,98870.77
2018-10-18T21:23:23.371Z,98869.03
2018-10-18T21:25:52.707Z,98873.63
2018-10-18T21:28:21.728Z,98869.03
2018-10-18T21:30:50.322Z,98869.23
2018-10-18T21:33:18.832Z,98870.67
2018-10-18T21:35:47.967Z,98871.38
2018-10-18T21:38:16.430Z,98874.33
2018-10-18T21:40:45.091Z,98873.87
2018-10-18T21:43:13.436Z,98868.58
2018-10-18T21:45:48.880Z,98871.05
2018-10-18T21:48:18.021Z,98871.28
2018-10-18T21:50:47.725Z,98874.69
2018-10-18T21:53:16.466Z,98870.70
2018-10-18T21:55:44.862Z,98875.16
2018-10-18T21:58:13.245Z,98875.17
2018-10-18T22:00:44.268Z,98872.45
2018-10-18T22:03:13.414Z,98862.00
2018-10-18T22:05:43.116Z,98870.09
2018-10-18T22:08:11.526Z,98869.97
2018-10-18T22:10:40.903Z,98868.80
2018-10-18T22:13:10.094Z,98871.47
2018-10-18T22:15:38.546Z,98870.33
2018-10-18T22:18:07.710Z,98874.66
2018-10-18T22:20:36.457Z,98866.52
2018-10-18T22:23:05.480Z,98866.20
2018-10-18T22:25:34.251Z,98858.64
2018-10-18T22:28:02.883Z,98855.22
2018-10-18T22:30:31.245Z,98859.70
2018-10-18T22:32:59.619Z,98858.41
2018-10-18T22:35:27.958Z,98857.34
2018-10-18T22:37:57.285Z,98853.57
2018-10-18T22:40:25.797Z,98852.25
2018-10-18T22:42:54.264Z,98852.71
2018-10-18T22:45:23.631Z,98849.30
2018-10-18T22:47:51.882Z,98849.30
2018-10-18T22:50:20.752Z,98847.87
2018-10-18T22:52:49.083Z,98846.57
2018-10-18T22:55:18.844Z,98853.59
2018-10-18T22:57:47.161Z,98858.63
2018-10-18T23:00:15.872Z,98854.14
2018-10-18T23:02:44.526Z,98856.02
2018-10-18T23:05:13.805Z,98859.16
2018-10-18T23:07:42.222Z,98851.23
2018-10-18T23:10:10.887Z,98854.23
2018-10-18T23:12:39.514Z,98856.70
2018-10-18T23:15:09.521Z,98861.19
2018-10-18T23:17:38.197Z,98865.85
2018-10-18T23:20:08.312Z,98859.60
2018-10-18T23:22:37.105Z,98864.03
2018-10-18T23:25:06.520Z,98861.92
2018-10-18T23:27:34.917Z,98863.44
2018-10-18T23:30:04.795Z,98856.73
2018-10-18T23:32:33.584Z,98857.63
2018-10-18T23:35:02.727Z,98857.42
2018-10-18T23:37:31.345Z,98860.81
2018-10-18T23:40:00.413Z,98858.92
2018-10-18T23:42:28.684Z,98861.96
2018-10-18T23:44:57.416Z,98856.28
2018-10-18T23:47:25.754Z,98859.40
2018-10-18T23:49:54.204Z,98861.16
2018-10-18T23:52:22.985Z,98858.79
2018-10-18T23:54:52.571Z,98863.72
2018-10-18T23:57:23.493Z,98859.77
2018-10-18T23:59:52.121Z,98863.72
